createdAt,value
2023-01-21T00:01:17.540Z,18.30
2023-01-21T00:03:47.465Z,18.60
2023-01-21T00:06:16.057Z,20.05
2023-01-21T00:08:44.460Z,16.83
2023-01-21T00:11:15.011Z,18.85
2023-01-21T00:13:44.015Z,20.58
2023-01-21T00:16:13.533Z,20.13
2023-01-21T00:18:42.511Z,19.35
2023-01-21T00:21:12.102Z,17.10
2023-01-21T00:23:40.466Z,17.77
2023-01-21T00:26:11.530Z,18.10
2023-01-21T00:28:41.677Z,20.17
2023-01-21T00:31:11.935Z,17.60
2023-01-21T00:33:40.200Z,18.88
2023-01-21T00:36:10.339Z,17.08
2023-01-21T00:38:40.253Z,20.27
2023-01-21T00:41:10.218Z,18.13
2023-01-21T00:43:39.416Z,20.15
2023-01-21T00:46:08.088Z,16.48
2023-01-21T00:48:36.642Z,16.90
2023-01-21T00:51:05.644Z,17.48
2023-01-21T00:53:35.302Z,15.32
2023-01-21T00:56:06.790Z,16.25
2023-01-21T00:58:35.569Z,19.85
2023-01-21T01:01:04.688Z,17.13
2023-01-21T01:03:33.726Z,16.45
2023-01-21T01:06:06.558Z,16.55
2023-01-21T01:08:35.079Z,15.77
2023-01-21T01:11:05.301Z,17.23
2023-01-21T01:13:35.375Z,16.75
2023-01-21T01:16:04.494Z,16.50
2023-01-21T01:18:34.663Z,16.85
2023-01-21T01:21:03.658Z,16.02
2023-01-21T01:23:32.158Z,19.52
2023-01-21T01:26:01.900Z,16.30
2023-01-21T01:28:32.188Z,18.02
2023-01-21T01:31:01.150Z,15.57
2023-01-21T01:33:29.481Z,15.65
2023-01-21T01:36:02.748Z,17.08
2023-01-21T01:38:30.972Z,15.13
2023-01-21T01:40:59.295Z,16.13
2023-01-21T01:43:29.059Z,15.23
2023-01-21T01:45:58.578Z,20.65
2023-01-21T01:48:29.819Z,18.77
2023-01-21T01:51:00.219Z,17.15
2023-01-21T01:53:29.070Z,15.23
2023-01-21T01:55:58.088Z,16.70
2023-01-21T01:58:26.385Z,18.02
2023-01-21T02:00:54.602Z,14.90
2023-01-21T02:03:41.902Z,16.00
2023-01-21T02:06:10.057Z,16.75
2023-01-21T02:08:38.482Z,19.75
2023-01-21T02:11:12.217Z,19.50
2023-01-21T02:13:41.594Z,19.70
2023-01-21T02:16:35.522Z,17.35
2023-01-21T02:19:31.705Z,20.08
2023-01-21T02:22:09.746Z,17.88
2023-01-21T02:25:14.186Z,15.70
2023-01-21T02:27:57.869Z,18.85
2023-01-21T02:31:14.055Z,17.05
2023-01-21T02:34:04.094Z,18.20
2023-01-21T02:36:42.093Z,15.80
2023-01-21T02:39:18.321Z,16.40
2023-01-21T02:41:58.168Z,14.95
2023-01-21T02:44:36.177Z,19.60
2023-01-21T02:47:13.093Z,20.23
2023-01-21T02:49:46.570Z,17.70
2023-01-21T02:52:19.319Z,17.25
2023-01-21T02:54:54.075Z,16.08
2023-01-21T02:57:40.380Z,19.75
2023-01-21T03:00:14.241Z,16.75
2023-01-21T03:03:00.493Z,17.63
2023-01-21T03:05:39.606Z,16.98
2023-01-21T03:08:13.818Z,19.02
2023-01-21T03:10:44.000Z,18.63
2023-01-21T03:13:38.715Z,16.10
2023-01-21T03:16:28.447Z,17.50
2023-01-21T03:18:58.760Z,18.25
2023-01-21T03:21:31.469Z,18.73
2023-01-21T03:24:00.542Z,17.05
2023-01-21T03:26:33.209Z,16.00
2023-01-21T03:29:07.271Z,18.90
2023-01-21T03:31:38.059Z,18.45
2023-01-21T03:34:09.546Z,20.33
2023-01-21T03:36:43.212Z,23.00
2023-01-21T03:39:19.377Z,18.85
2023-01-21T03:41:47.686Z,19.73
2023-01-21T03:44:15.951Z,20.98
2023-01-21T03:46:50.581Z,22.63
2023-01-21T03:49:23.818Z,19.45
2023-01-21T03:51:57.212Z,19.33
2023-01-21T03:54:25.664Z,22.50
2023-01-21T03:56:53.898Z,17.92
2023-01-21T03:59:22.017Z,19.38
2023-01-21T04:01:50.227Z,19.85
2023-01-21T04:04:18.407Z,21.65
2023-01-21T04:06:46.540Z,21.02
2023-01-21T04:09:16.141Z,19.77
2023-01-21T04:11:44.330Z,19.98
2023-01-21T04:14:12.729Z,20.33
2023-01-21T04:16:40.928Z,19.02
2023-01-21T04:19:09.106Z,17.83
2023-01-21T04:21:37.251Z,19.85
2023-01-21T04:24:05.890Z,18.27
2023-01-21T04:26:35.427Z,20.38
2023-01-21T04:29:03.713Z,18.38
2023-01-21T04:31:31.912Z,20.40
2023-01-21T04:34:00.213Z,20.98
2023-01-21T04:36:28.349Z,18.38
2023-01-21T04:38:56.508Z,20.20
2023-01-21T04:41:25.543Z,19.95
2023-01-21T04:43:55.387Z,19.45
2023-01-21T04:46:23.650Z,18.30
2023-01-21T04:48:51.870Z,20.58
2023-01-21T04:51:20.073Z,19.65
2023-01-21T04:53:48.261Z,19.58
2023-01-21T04:56:16.400Z,18.55
2023-01-21T04:58:44.586Z,20.40
2023-01-21T05:01:14.131Z,20.70
2023-01-21T05:03:42.318Z,20.08
2023-01-21T05:06:10.508Z,19.42
2023-01-21T05:08:38.691Z,20.80
2023-01-21T05:11:09.469Z,21.20
2023-01-21T05:13:37.675Z,20.98
2023-01-21T05:16:08.486Z,23.00
2023-01-21T05:18:38.125Z,15.82
2023-01-21T05:21:06.926Z,23.92
2023-01-21T05:23:35.287Z,24.08
2023-01-21T05:26:03.472Z,19.65
2023-01-21T05:28:31.642Z,21.67
2023-01-21T05:31:02.412Z,19.63
2023-01-21T05:33:32.174Z,19.52
2023-01-21T05:36:03.047Z,21.77
2023-01-21T05:38:31.530Z,19.27
2023-01-21T05:41:00.277Z,19.65
2023-01-21T05:43:28.923Z,21.85
2023-01-21T05:45:57.912Z,20.80
2023-01-21T05:48:26.348Z,19.75
2023-01-21T05:50:55.763Z,18.25
2023-01-21T05:53:26.429Z,18.85
2023-01-21T05:55:55.511Z,17.05
2023-01-21T05:58:24.586Z,16.38
2023-01-21T06:00:52.820Z,18.33
2023-01-21T06:03:21.401Z,20.80
2023-01-21T06:05:50.852Z,21.40
2023-01-21T06:08:19.420Z,17.40
2023-01-21T06:10:48.956Z,18.05
2023-01-21T06:13:17.674Z,20.63
2023-01-21T06:15:45.898Z,20.35
2023-01-21T06:18:14.058Z,18.80
2023-01-21T06:20:42.335Z,21.98
2023-01-21T06:23:10.491Z,19.17
2023-01-21T06:25:38.644Z,19.75
2023-01-21T06:28:08.234Z,21.70
2023-01-21T06:30:36.399Z,20.58
2023-01-21T06:33:04.599Z,20.73
2023-01-21T06:35:32.747Z,21.95
2023-01-21T06:38:00.888Z,20.15
2023-01-21T06:40:29.144Z,19.58
2023-01-21T06:42:57.295Z,20.55
2023-01-21T06:45:26.945Z,20.23
2023-01-21T06:47:55.124Z,22.08
2023-01-21T06:50:23.417Z,20.30
2023-01-21T06:52:51.570Z,21.38
2023-01-21T06:55:19.806Z,18.73
2023-01-21T06:57:47.959Z,20.35
2023-01-21T07:00:17.062Z,20.20
2023-01-21T07:02:46.835Z,21.83
2023-01-21T07:05:15.885Z,22.80
2023-01-21T07:07:44.313Z,18.63
2023-01-21T07:10:13.155Z,19.67
2023-01-21T07:12:41.296Z,21.27
2023-01-21T07:15:10.581Z,19.50
2023-01-21T07:17:38.719Z,23.65
2023-01-21T07:20:12.322Z,20.95
2023-01-21T07:22:40.791Z,18.45
2023-01-21T07:25:09.825Z,20.45
2023-01-21T07:27:38.909Z,21.10
2023-01-21T07:30:08.387Z,19.13
2023-01-21T07:32:36.526Z,20.95
2023-01-21T07:35:05.193Z,19.25
2023-01-21T07:37:34.726Z,18.10
2023-01-21T07:40:02.960Z,18.58
2023-01-21T07:42:31.119Z,19.10
2023-01-21T07:44:59.623Z,17.77
2023-01-21T07:47:27.809Z,21.67
2023-01-21T07:49:56.010Z,18.75
2023-01-21T07:52:24.153Z,19.98
2023-01-21T07:54:53.693Z,15.32
2023-01-21T07:57:21.847Z,20.10
2023-01-21T07:59:49.990Z,20.50
2023-01-21T08:02:18.251Z,13.43
2023-01-21T08:04:46.461Z,16.48
2023-01-21T08:07:14.663Z,19.45
2023-01-21T08:09:42.828Z,14.13
2023-01-21T08:12:12.824Z,18.65
2023-01-21T08:14:40.968Z,19.25
2023-01-21T08:17:09.116Z,16.00
2023-01-21T08:19:37.261Z,16.85
2023-01-21T08:22:05.385Z,13.45
2023-01-21T08:24:34.795Z,14.35
2023-01-21T08:27:02.962Z,17.42
2023-01-21T08:29:32.473Z,17.35
2023-01-21T08:32:00.621Z,14.80
2023-01-21T08:34:28.748Z,16.48
2023-01-21T08:36:56.895Z,15.30
2023-01-21T08:39:25.022Z,14.70
2023-01-21T08:41:53.188Z,16.60
2023-01-21T08:44:21.310Z,16.65
2023-01-21T08:46:51.212Z,15.43
2023-01-21T08:49:19.368Z,17.13
2023-01-21T08:51:47.862Z,16.73
2023-01-21T08:54:16.215Z,15.70
2023-01-21T08:56:44.358Z,16.33
2023-01-21T08:59:12.981Z,16.25
2023-01-21T09:01:41.727Z,13.85
2023-01-21T09:04:11.533Z,19.20
2023-01-21T09:06:39.658Z,16.02
2023-01-21T09:09:07.821Z,16.05
2023-01-21T09:11:35.972Z,14.25
2023-01-21T09:14:04.396Z,16.35
2023-01-21T09:16:32.996Z,18.17
2023-01-21T09:19:01.472Z,16.75
2023-01-21T09:21:31.309Z,13.55
2023-01-21T09:23:59.489Z,18.83
2023-01-21T09:26:27.894Z,16.13
2023-01-21T09:28:57.224Z,15.55
2023-01-21T09:31:27.170Z,15.07
2023-01-21T09:33:57.119Z,15.15
2023-01-21T09:36:27.685Z,14.55
2023-01-21T09:38:57.325Z,12.82
2023-01-21T09:41:28.745Z,13.25
2023-01-21T09:44:06.000Z,15.70
2023-01-21T09:46:39.995Z,13.00
2023-01-21T09:49:15.823Z,13.75
2023-01-21T09:52:00.679Z,11.98
2023-01-21T09:54:32.212Z,12.43
2023-01-21T09:57:45.924Z,11.57
2023-01-21T10:00:27.108Z,12.63
2023-01-21T10:03:03.150Z,12.70
2023-01-21T10:05:59.808Z,10.45
2023-01-21T10:08:35.146Z,13.82
2023-01-21T10:11:18.920Z,12.50
2023-01-21T10:14:03.262Z,11.75
2023-01-21T10:16:35.848Z,13.45
2023-01-21T10:19:06.549Z,10.80
2023-01-21T10:21:38.722Z,12.85
2023-01-21T10:24:15.423Z,13.98
2023-01-21T10:26:47.119Z,14.98
2023-01-21T10:29:18.789Z,13.80
2023-01-21T10:31:54.807Z,13.55
2023-01-21T10:34:22.970Z,12.40
2023-01-21T10:37:05.146Z,11.35
2023-01-21T10:39:44.098Z,12.45
2023-01-21T10:42:35.227Z,9.73
2023-01-21T10:45:08.303Z,11.07
2023-01-21T10:47:44.320Z,11.20
2023-01-21T10:50:26.901Z,19.17
2023-01-21T10:53:00.873Z,13.18
2023-01-21T10:55:39.375Z,18.95
2023-01-21T10:58:16.481Z,12.93
2023-01-21T11:00:48.399Z,8.63
2023-01-21T11:03:23.245Z,13.93
2023-01-21T11:05:51.548Z,11.38
2023-01-21T11:08:23.748Z,12.40
2023-01-21T11:10:55.291Z,10.35
2023-01-21T11:13:25.222Z,8.65
2023-01-21T11:15:54.640Z,8.73
2023-01-21T11:18:31.920Z,39.70
2023-01-21T11:21:02.267Z,12.35
2023-01-21T11:23:32.861Z,12.45
2023-01-21T11:26:07.303Z,41.80
2023-01-21T11:28:37.741Z,10.18
2023-01-21T11:31:11.631Z,11.93
2023-01-21T11:33:40.668Z,9.07
2023-01-21T11:36:15.259Z,11.50
2023-01-21T11:38:43.845Z,9.13
2023-01-21T11:41:22.399Z,8.20
2023-01-21T11:43:53.141Z,7.22
2023-01-21T11:46:29.990Z,7.60
2023-01-21T11:49:17.354Z,8.27
2023-01-21T11:51:47.589Z,9.95
2023-01-21T11:54:17.059Z,8.98
2023-01-21T11:56:55.499Z,8.68
2023-01-21T11:59:28.393Z,8.32
2023-01-21T12:02:00.841Z,12.57
2023-01-21T12:04:29.041Z,9.73
2023-01-21T12:07:00.488Z,8.07
2023-01-21T12:09:30.162Z,7.63
2023-01-21T12:12:29.726Z,7.72
2023-01-21T12:15:05.047Z,7.38
2023-01-21T12:17:49.785Z,8.48
2023-01-21T12:20:32.326Z,7.93
2023-01-21T12:23:27.102Z,7.25
2023-01-21T12:26:01.235Z,6.88
2023-01-21T12:28:43.854Z,10.43
2023-01-21T12:31:25.002Z,14.75
2023-01-21T12:33:58.088Z,8.40
2023-01-21T12:36:34.039Z,7.63
2023-01-21T12:39:17.035Z,8.02
2023-01-21T12:41:49.926Z,7.97
2023-01-21T12:44:27.035Z,9.13
2023-01-21T12:47:00.526Z,7.93
2023-01-21T12:49:46.961Z,9.43
2023-01-21T12:52:21.797Z,7.22
2023-01-21T12:54:58.640Z,7.82
2023-01-21T12:57:32.936Z,6.60
2023-01-21T13:00:06.894Z,6.82
2023-01-21T13:02:42.359Z,6.57
2023-01-21T13:05:15.453Z,6.28
2023-01-21T13:07:49.849Z,7.07
2023-01-21T13:10:23.447Z,6.93
2023-01-21T13:12:57.493Z,15.77
2023-01-21T13:15:31.332Z,8.73
2023-01-21T13:18:04.914Z,6.95
2023-01-21T13:20:38.422Z,7.78
2023-01-21T13:23:16.326Z,10.20
2023-01-21T13:25:51.784Z,7.90
2023-01-21T13:28:29.202Z,10.10
2023-01-21T13:31:03.952Z,10.57
2023-01-21T13:33:47.521Z,9.18
2023-01-21T13:36:27.661Z,11.40
2023-01-21T13:39:03.541Z,10.00
2023-01-21T13:41:45.739Z,12.38
2023-01-21T13:44:40.055Z,10.80
2023-01-21T13:47:16.497Z,8.18
2023-01-21T13:50:20.349Z,8.18
2023-01-21T13:53:12.753Z,8.48
2023-01-21T13:55:51.451Z,9.52
2023-01-21T13:58:30.212Z,9.15
2023-01-21T14:01:02.790Z,8.43
2023-01-21T14:03:39.140Z,8.27
2023-01-21T14:06:12.344Z,8.85
2023-01-21T14:08:48.035Z,8.60
2023-01-21T14:11:21.573Z,9.40
2023-01-21T14:14:15.447Z,9.10
2023-01-21T14:17:07.215Z,8.60
2023-01-21T14:20:09.932Z,5.72
2023-01-21T14:23:06.756Z,7.13
2023-01-21T14:25:51.031Z,8.68
2023-01-21T14:28:26.926Z,8.73
2023-01-21T14:31:02.743Z,8.25
2023-01-21T14:33:44.199Z,8.27
2023-01-21T14:36:17.202Z,9.85
2023-01-21T14:39:01.982Z,9.30
2023-01-21T14:42:09.165Z,6.05
2023-01-21T14:44:39.769Z,7.95
2023-01-21T14:47:42.332Z,8.50
2023-01-21T14:50:11.248Z,8.07
2023-01-21T14:52:44.902Z,11.77
2023-01-21T14:55:32.644Z,11.13
2023-01-21T14:58:02.513Z,7.05
2023-01-21T15:00:33.739Z,6.72
2023-01-21T15:03:15.320Z,7.10
2023-01-21T15:05:45.707Z,7.07
2023-01-21T15:08:22.966Z,9.23
2023-01-21T15:10:56.808Z,7.65
2023-01-21T15:13:36.129Z,6.75
2023-01-21T15:16:08.865Z,7.70
2023-01-21T15:18:39.937Z,8.63
2023-01-21T15:21:37.419Z,7.13
2023-01-21T15:24:26.729Z,7.82
2023-01-21T15:27:21.492Z,7.00
2023-01-21T15:30:27.823Z,6.80
2023-01-21T15:32:56.888Z,10.82
2023-01-21T15:35:31.495Z,9.32
2023-01-21T15:38:03.524Z,11.80
2023-01-21T15:40:38.604Z,8.77
2023-01-21T15:43:15.815Z,6.68
2023-01-21T15:45:51.732Z,8.13
2023-01-21T15:48:44.193Z,8.23
2023-01-21T15:51:21.056Z,8.27
2023-01-21T15:54:16.582Z,8.05
2023-01-21T15:56:58.131Z,10.38
2023-01-21T15:59:46.011Z,8.05
2023-01-21T16:02:21.907Z,7.45
2023-01-21T16:05:07.806Z,8.30
2023-01-21T16:07:46.682Z,9.00
2023-01-21T16:10:23.193Z,9.43
2023-01-21T16:13:00.938Z,7.93
2023-01-21T16:15:41.686Z,8.68
2023-01-21T16:18:22.639Z,9.77
2023-01-21T16:20:54.878Z,9.52
2023-01-21T16:23:26.512Z,9.18
2023-01-21T16:25:55.160Z,8.05
2023-01-21T16:28:23.345Z,7.35
2023-01-21T16:30:57.674Z,7.40
2023-01-21T16:33:26.073Z,7.53
2023-01-21T16:35:57.294Z,8.30
2023-01-21T16:38:27.114Z,35.67
2023-01-21T16:41:24.199Z,39.63
2023-01-21T16:43:55.516Z,14.57
2023-01-21T16:46:27.711Z,9.82
2023-01-21T16:48:58.391Z,9.90
2023-01-21T16:51:30.138Z,7.45
2023-01-21T16:54:23.969Z,8.85
2023-01-21T16:56:55.261Z,8.20
2023-01-21T16:59:26.594Z,7.85
2023-01-21T17:01:57.234Z,12.18
2023-01-21T17:04:25.678Z,8.70
2023-01-21T17:06:54.865Z,8.40
2023-01-21T17:09:33.303Z,8.43
2023-01-21T17:12:06.375Z,8.25
2023-01-21T17:14:36.214Z,8.95
2023-01-21T17:17:08.743Z,9.07
2023-01-21T17:19:38.813Z,6.53
2023-01-21T17:22:14.963Z,8.43
2023-01-21T17:24:56.958Z,6.60
2023-01-21T17:27:26.418Z,9.02
2023-01-21T17:29:54.681Z,9.15
2023-01-21T17:32:28.929Z,10.85
2023-01-21T17:35:12.959Z,9.32
2023-01-21T17:37:47.169Z,8.63
2023-01-21T17:40:34.357Z,7.65
2023-01-21T17:43:15.335Z,9.02
2023-01-21T17:45:45.832Z,9.65
2023-01-21T17:48:24.698Z,9.05
2023-01-21T17:50:53.968Z,7.68
2023-01-21T17:53:27.327Z,9.15
2023-01-21T17:56:01.589Z,8.63
2023-01-21T17:58:52.007Z,8.25
2023-01-21T18:01:21.640Z,7.00
2023-01-21T18:03:51.172Z,11.73
2023-01-21T18:06:21.708Z,7.57
2023-01-21T18:08:50.985Z,13.10
2023-01-21T18:11:20.904Z,6.80
2023-01-21T18:13:50.072Z,8.82
2023-01-21T18:16:18.312Z,8.80
2023-01-21T18:18:46.605Z,8.02
2023-01-21T18:21:22.743Z,8.70
2023-01-21T18:23:51.072Z,8.73
2023-01-21T18:26:27.547Z,6.57
2023-01-21T18:28:55.817Z,8.75
2023-01-21T18:31:24.080Z,9.95
2023-01-21T18:33:52.365Z,10.63
2023-01-21T18:36:21.935Z,8.48
2023-01-21T18:38:50.098Z,7.55
2023-01-21T18:41:18.230Z,7.93
2023-01-21T18:43:46.373Z,8.38
2023-01-21T18:46:16.235Z,9.18
2023-01-21T18:48:44.568Z,11.10
2023-01-21T18:51:14.957Z,7.80
2023-01-21T18:53:44.778Z,9.77
2023-01-21T18:56:14.971Z,9.43
2023-01-21T18:58:43.368Z,9.27
2023-01-21T19:01:22.612Z,8.77
2023-01-21T19:03:54.386Z,10.38
2023-01-21T19:06:23.542Z,9.73
2023-01-21T19:08:54.968Z,9.40
2023-01-21T19:11:23.279Z,10.27
2023-01-21T19:13:51.449Z,9.10
2023-01-21T19:16:20.810Z,10.20
2023-01-21T19:18:49.003Z,7.97
2023-01-21T19:21:17.164Z,8.88
2023-01-21T19:23:45.368Z,8.48
2023-01-21T19:26:15.332Z,9.27
2023-01-21T19:28:43.574Z,37.25
2023-01-21T19:31:11.833Z,14.23
2023-01-21T19:33:43.110Z,11.05
2023-01-21T19:36:16.421Z,10.68
2023-01-21T19:38:48.255Z,9.25
2023-01-21T19:41:17.811Z,10.52
2023-01-21T19:43:46.214Z,10.02
2023-01-21T19:46:14.464Z,10.57
2023-01-21T19:48:43.019Z,9.32
2023-01-21T19:51:11.547Z,11.13
2023-01-21T19:53:39.740Z,8.95
2023-01-21T19:56:09.033Z,9.38
2023-01-21T19:58:42.132Z,11.15
2023-01-21T20:01:10.358Z,10.57
2023-01-21T20:03:41.552Z,10.75
2023-01-21T20:06:14.123Z,9.30
2023-01-21T20:08:43.599Z,9.50
2023-01-21T20:11:11.775Z,9.38
2023-01-21T20:13:41.348Z,9.60
2023-01-21T20:16:16.030Z,10.13
2023-01-21T20:18:46.168Z,12.32
2023-01-21T20:21:14.381Z,11.18
2023-01-21T20:23:43.172Z,13.27
2023-01-21T20:26:17.574Z,10.45
2023-01-21T20:28:51.448Z,11.25
2023-01-21T20:31:20.165Z,11.48
2023-01-21T20:33:48.519Z,12.27
2023-01-21T20:36:20.074Z,11.65
2023-01-21T20:38:48.485Z,11.35
2023-01-21T20:41:16.696Z,11.95
2023-01-21T20:43:46.635Z,11.15
2023-01-21T20:46:19.356Z,12.00
2023-01-21T20:48:47.964Z,11.30
2023-01-21T20:51:16.291Z,12.77
2023-01-21T20:53:44.524Z,22.77
2023-01-21T20:56:19.565Z,17.02
2023-01-21T20:58:49.803Z,12.48
2023-01-21T21:01:20.777Z,13.45
2023-01-21T21:03:49.604Z,13.63
2023-01-21T21:06:19.575Z,13.40
2023-01-21T21:08:47.786Z,12.85
2023-01-21T21:11:17.241Z,14.07
2023-01-21T21:13:48.211Z,13.43
2023-01-21T21:16:21.502Z,11.83
2023-01-21T21:18:50.397Z,12.32
2023-01-21T21:21:22.492Z,12.80
2023-01-21T21:23:52.342Z,13.90
2023-01-21T21:26:23.353Z,14.23
2023-01-21T21:28:54.616Z,10.65
2023-01-21T21:31:25.216Z,11.15
2023-01-21T21:33:53.770Z,11.48
2023-01-21T21:36:23.817Z,12.68
2023-01-21T21:38:55.561Z,12.55
2023-01-21T21:41:43.067Z,15.15
2023-01-21T21:44:12.245Z,12.35
2023-01-21T21:47:00.049Z,13.77
2023-01-21T21:49:28.776Z,11.85
2023-01-21T21:51:57.075Z,13.70
2023-01-21T21:54:25.273Z,14.98
2023-01-21T21:56:53.524Z,12.82
2023-01-21T21:59:21.717Z,12.23
2023-01-21T22:01:51.332Z,14.32
2023-01-21T22:04:21.213Z,12.13
2023-01-21T22:06:49.435Z,14.70
2023-01-21T22:09:17.784Z,12.88
2023-01-21T22:11:45.963Z,13.68
2023-01-21T22:14:14.142Z,15.73
2023-01-21T22:16:42.413Z,11.07
2023-01-21T22:19:13.014Z,12.93
2023-01-21T22:21:41.185Z,13.75
2023-01-21T22:24:10.655Z,13.18
2023-01-21T22:26:39.183Z,17.35
2023-01-21T22:29:07.676Z,11.70
2023-01-21T22:31:36.182Z,12.85
2023-01-21T22:34:05.213Z,12.50
2023-01-21T22:36:34.867Z,11.35
2023-01-21T22:39:03.275Z,11.65
2023-01-21T22:41:31.823Z,11.27
2023-01-21T22:43:59.997Z,12.93
2023-01-21T22:46:30.494Z,11.48
2023-01-21T22:48:59.102Z,10.93
2023-01-21T22:51:27.773Z,10.60
2023-01-21T22:53:57.726Z,10.77
2023-01-21T22:56:45.056Z,11.30
2023-01-21T22:59:14.543Z,10.13
2023-01-21T23:01:42.877Z,12.90
2023-01-21T23:04:11.527Z,10.27
2023-01-21T23:06:39.791Z,11.02
2023-01-21T23:09:11.505Z,11.90
2023-01-21T23:14:09.520Z,9.48
2023-01-21T23:16:37.725Z,11.52
2023-01-21T23:19:05.972Z,10.05
2023-01-21T23:21:34.312Z,10.65
2023-01-21T23:24:02.528Z,10.52
2023-01-21T23:26:32.316Z,10.50
2023-01-21T23:29:00.558Z,9.60
2023-01-21T23:31:28.841Z,9.80
2023-01-21T23:33:57.381Z,9.15
2023-01-21T23:36:25.551Z,8.05
2023-01-21T23:38:53.690Z,10.65
2023-01-21T23:41:21.860Z,10.23
2023-01-21T23:43:51.388Z,8.70
2023-01-21T23:46:20.456Z,8.63
2023-01-21T23:48:49.181Z,9.38
2023-01-21T23:51:18.460Z,8.88
2023-01-21T23:53:47.718Z,10.18
2023-01-21T23:56:18.163Z,8.15
2023-01-21T23:58:46.342Z,9.50
